METAR AND TAF INFORMATION
METAR FOR EGSS
ADDS - METARS form results

(1930 UTC 26 April 2018)
Data provider http://aviationweather.gov/adds/metars/
 
METAR text: EGSS 261920Z AUTO 25006KT 9999 NCD 11/01 Q1014
Conditions at: EGSS (STANSTED AIRPORT, GB) observed 1920 UTC 26 April 2018
Temperature: 11.0°C (52°F)
Dewpoint: 1.0°C (34°F) [RH = 50%]
Pressure (altimeter): 29.94 inches Hg (1014.0 mb)
Winds: from the WSW (250 degrees) at 7 MPH (6 knots; 3.1 m/s)
Visibility: 6 or more miles (10+ km)
Ceiling: at least 12,000 feet AGL
Clouds: sky clear below 12,000 feet AGL
Weather: no significant weather observed at this time

METAR text: EGSS 261850Z AUTO 26006KT 9999 NCD 12/01 Q1014
Conditions at: EGSS (STANSTED AIRPORT, GB) observed 1850 UTC 26 April 2018
Temperature: 12.0°C (54°F)
Dewpoint: 1.0°C (34°F) [RH = 47%]
Pressure (altimeter): 29.94 inches Hg (1014.0 mb)
Winds: from the W (260 degrees) at 7 MPH (6 knots; 3.1 m/s)
Visibility: 6 or more miles (10+ km)
Ceiling: at least 12,000 feet AGL
Clouds: sky clear below 12,000 feet AGL
Weather: no significant weather observed at this time

Forecast for: EGSS (STANSTED AIRPORT, GB)
Text: TAF EGSS 261655Z 2618/2724 26010KT 9999 SCT025
Forecast period: 1800 to 2100 UTC 26 April 2018
Forecast type: FROM: standard forecast or significant change
Winds: from the W (260 degrees) at 12 MPH (10 knots; 5.2 m/s)
Visibility: 6 or more miles (10+ km)
Clouds: scattered clouds at 2500 feet AGL
Weather: no significant weather forecast for this period
Forecast for: EGSS (STANSTED AIRPORT, GB)
Text: TAF EGSS 261655Z 2618/2724 26010KT 9999 SCT025
Forecast period: 1800 to 2100 UTC 26 April 2018
Forecast type: FROM: standard forecast or significant change
Winds: from the W (260 degrees) at 12 MPH (10 knots; 5.2 m/s)
Visibility: 6 or more miles (10+ km)
Clouds: scattered clouds at 2500 feet AGL
Weather: no significant weather forecast for this period
Forecast for: EGSS (STANSTED AIRPORT, GB)
Text: TAF EGSS 261655Z 2618/2724 26010KT 9999 SCT025
Forecast period: 2100 UTC 26 April 2018 to 0600 UTC 27 April 2018
Forecast type: BECOMING: Conditions expected to become as follows by 0000 UTC 27 April 2018
Winds: from the SSW (200 degrees) at 7 MPH (6 knots; 3.1 m/s)
Visibility: 6 or more miles (10+ km)
Clouds: scattered clouds at 2500 feet AGL
Weather: no significant weather forecast for this period
Forecast for: EGSS (STANSTED AIRPORT, GB)
Text: TAF EGSS 261655Z 2618/2724 26010KT 9999 SCT025
Forecast period: 2100 UTC 26 April 2018 to 0600 UTC 27 April 2018
Forecast type: BECOMING: Conditions expected to become as follows by 0000 UTC 27 April 2018
Winds: from the SSW (200 degrees) at 7 MPH (6 knots; 3.1 m/s)
Visibility: 6 or more miles (10+ km)
Clouds: scattered clouds at 2500 feet AGL
Weather: no significant weather forecast for this period
Forecast for: EGSS (STANSTED AIRPORT, GB)
Text: TAF EGSS 261655Z 2618/2724 26010KT 9999 SCT025
Forecast period: 0400 UTC 27 April 2018 to 0000 UTC 28 April 2018
Forecast type: TEMPORARY: The following changes expected for less than half the time period
Visibility: 5 miles (8 km)
Weather: -RA  (light rain)
Forecast for: EGSS (STANSTED AIRPORT, GB)
Text: TAF EGSS 261655Z 2618/2724 26010KT 9999 SCT025
Forecast period: 0400 UTC 27 April 2018 to 0000 UTC 28 April 2018
Forecast type: TEMPORARY: The following changes expected for less than half the time period
Visibility: 5 miles (8 km)
Weather: -RA  (light rain)
Forecast for: EGSS (STANSTED AIRPORT, GB)
Text: TAF EGSS 261655Z 2618/2724 26010KT 9999 SCT025
Forecast period: 0400 to 2100 UTC 27 April 2018
Forecast type: TEMPORARY: The following changes expected for less than half the time period
Visibility: 2.49 miles (4.01 km)
Ceiling: 1000 feet AGL
Clouds: broken clouds at 1000 feet AGL
Weather: RA  (rain)
Forecast for: EGSS (STANSTED AIRPORT, GB)
Text: TAF EGSS 261655Z 2618/2724 26010KT 9999 SCT025
Forecast period: 0400 to 2100 UTC 27 April 2018
Forecast type: TEMPORARY: The following changes expected for less than half the time period
Visibility: 2.49 miles (4.01 km)
Ceiling: 1000 feet AGL
Clouds: broken clouds at 1000 feet AGL
Weather: RA  (rain)
Forecast for: EGSS (STANSTED AIRPORT, GB)
Text: TAF EGSS 261655Z 2618/2724 26010KT 9999 SCT025
Forecast period: 0600 UTC 27 April 2018 to 0000 UTC 28 April 2018
Forecast type: BECOMING: Conditions expected to become as follows by 0900 UTC 27 April 2018
Winds: from the ESE (110 degrees) at 12 MPH (10 knots; 5.2 m/s)
Visibility: 6 or more miles (10+ km)
Clouds: scattered clouds at 2500 feet AGL
Weather: no significant weather forecast for this period
Forecast for: EGSS (STANSTED AIRPORT, GB)
Text: TAF EGSS 261655Z 2618/2724 26010KT 9999 SCT025
Forecast period: 0600 UTC 27 April 2018 to 0000 UTC 28 April 2018
Forecast type: BECOMING: Conditions expected to become as follows by 0900 UTC 27 April 2018
Winds: from the ESE (110 degrees) at 12 MPH (10 knots; 5.2 m/s)
Visibility: 6 or more miles (10+ km)
Clouds: scattered clouds at 2500 feet AGL
Weather: no significant weather forecast for this period
Forecast for: EGSS (STANSTED AIRPORT, GB)
Text: TAF EGSS 261655Z 2618/2724 26010KT 9999 SCT025
Forecast period: 2100 UTC 27 April 2018 to 0000 UTC 28 April 2018
Forecast type: TEMPORARY: The following changes expected for less than half the time period
Ceiling: 1000 feet AGL
Clouds: broken clouds at 1000 feet AGL
Weather: no significant weather forecast for this period
Forecast for: EGSS (STANSTED AIRPORT, GB)
Text: TAF EGSS 261655Z 2618/2724 26010KT 9999 SCT025
Forecast period: 2100 UTC 27 April 2018 to 0000 UTC 28 April 2018
Forecast type: TEMPORARY: The following changes expected for less than half the time period
Ceiling: 1000 feet AGL
Clouds: broken clouds at 1000 feet AGL
Weather: no significant weather forecast for this period
Forecast for: EGSS (STANSTED AIRPORT, GB)
Text: TAF EGSS 261655Z 2618/2724 26010KT 9999 SCT025
Forecast period: 2100 UTC 27 April 2018 to 0000 UTC 28 April 2018
Forecast type: TEMPORARY: The following changes expected for less than half the time period
Visibility: 1.24 miles (2.00 km)
Ceiling: 300 feet AGL
Clouds: broken clouds at 300 feet AGL
Weather: BR  (mist)
Forecast for: EGSS (STANSTED AIRPORT, GB)
Text: TAF EGSS 261655Z 2618/2724 26010KT 9999 SCT025
Forecast period: 2100 UTC 27 April 2018 to 0000 UTC 28 April 2018
Forecast type: TEMPORARY: The following changes expected for less than half the time period
Visibility: 1.24 miles (2.00 km)
Ceiling: 300 feet AGL
Clouds: broken clouds at 300 feet AGL
Weather: BR  (mist)

 AIRPORT MAP

 RUNWAY INFORMATION
Runway 04 Runway length 10003 ft Runway width 151 ft
Runway elevation 324 ft Runway displaced threshold 0 ft Runway heading 44
Runway 22 Runway length 10003 ft Runway width 151 ft
Runway elevation 348 ft Runway displaced threshold 0 ft Runway heading 224

 AIRPORT FREQUENCIES
Type APP Name Essex Rada Frequency 120.625 MHZ
Type ATIS Name ATIS Frequency 127.175 MHZ
Type CLD Name CLNC DEL Frequency 121.95 MHZ
Type DIR Name DIRECTOR Frequency 136.2 MHZ
Type GND Name GND Frequency 121.725 MHZ
Type RDR Name Director Frequency 136.2 MHZ
Type TWR Name TWR Frequency 123.8 MHZ

 AIRPORT NEAR NAVIGATION AIDS
Type VOR-DME Name Barkway Frequency 116250 KHZ
Type NDB Name Stansted Frequency 429 KHZ



v2.6.1